Time;durP1;ratioP1;P1;durP2;ratioP2;P2;SDS_P1;SDS_P2;PMS_P1;PMS_P2;Temp;Humidity;BMP_temperature;BMP_pressure;BME280_temperature;BME280_humidity;BME280_pressure;Samples;Min_cycle;Max_cycle;Signal;HPM_P1;HPM_P2
2024/05/06 00:00:05;;;;;;;;;;;;;;;14.34;100.00;99968.72;5415695;26;20375;-66
2024/05/06 00:02:30;;;;;;;;;;;;;;;14.27;100.00;99969.59;5394886;26;19968;-63
2024/05/06 00:04:55;;;;;;;;;;;;;;;14.25;100.00;99964.28;5412871;26;19979;-62
2024/05/06 00:07:20;;;;;;;;;;;;;;;14.21;100.00;99967.81;5415577;26;20499;-61
2024/05/06 00:09:46;;;;;;;;;;;;;;;14.21;100.00;99978.44;5409416;26;19981;-63
2024/05/06 00:12:11;;;;;;;;;;;;;;;14.09;100.00;99961.63;5419584;26;19946;-63
2024/05/06 00:14:37;;;;;;;;;;;;;;;14.14;100.00;99971.38;5411963;26;19963;-61
2024/05/06 00:17:02;;;;;;;;;;;;;;;14.17;100.00;99970.50;5410885;26;19986;-64
2024/05/06 00:19:27;;;;;;;;;;;;;;;14.06;100.00;99977.56;5410762;26;19929;-62
2024/05/06 00:21:52;;;;;;;;;;;;;;;14.06;100.00;99977.56;5400963;26;19958;-62
2024/05/06 00:24:17;;;;;;;;;;;;;;;14.08;100.00;99976.69;5386524;26;19986;-61
2024/05/06 00:26:43;;;;;;;;;;;;;;;14.12;100.00;99974.91;5411520;26;20491;-61
2024/05/06 00:29:08;;;;;;;;;;;;;;;14.11;100.00;99970.47;5392416;26;19929;-62
2024/05/06 00:31:33;;;;;;;;;;;;;;;14.11;100.00;99970.47;5408561;26;19952;-61
2024/05/06 00:33:58;;;;;;;;;;;;;;;14.06;100.00;99961.63;5406518;26;19963;-62
2024/05/06 00:36:23;;;;;;;;;;;;;;;14.01;100.00;99974.03;5374815;26;19934;-61
2024/05/06 00:38:48;;;;;;;;;;;;;;;14.00;100.00;99980.22;5404085;26;19959;-64
2024/05/06 00:41:14;;;;;;;;;;;;;;;14.00;100.00;99982.88;5395951;26;20373;-62
2024/05/06 00:43:39;;;;;;;;;;;;;;;13.94;100.00;99999.69;5380097;26;19929;-61
2024/05/06 00:46:04;;;;;;;;;;;;;;;13.96;100.00;99991.72;5391607;26;19990;-61
2024/05/06 00:48:30;;;;;;;;;;;;;;;13.98;100.00;99995.28;5408841;26;19929;-67
2024/05/06 00:50:56;;;;;;;;;;;;;;;14.00;100.00;99994.41;5408140;26;19929;-64
2024/05/06 00:53:21;;;;;;;;;;;;;;;13.90;100.00;99996.13;5405143;26;20023;-62
2024/05/06 00:55:47;;;;;;;;;;;;;;;13.90;100.00;100004.09;5392254;26;19940;-64
2024/05/06 00:58:12;;;;;;;;;;;;;;;13.97;100.00;100004.13;5399633;26;20292;-62
2024/05/06 01:00:38;;;;;;;;;;;;;;;14.00;100.00;100006.78;5384037;26;19929;-64
2024/05/06 01:03:03;;;;;;;;;;;;;;;13.97;100.00;100006.78;5408067;26;19962;-66
2024/05/06 01:05:28;;;;;;;;;;;;;;;13.93;100.00;99993.50;5390544;26;19937;-64
2024/05/06 01:07:54;;;;;;;;;;;;;;;13.91;100.00;100003.22;5408137;26;19959;-64
2024/05/06 01:10:19;;;;;;;;;;;;;;;13.90;100.00;99998.78;5395750;26;20047;-70
2024/05/06 01:12:45;;;;;;;;;;;;;;;13.88;100.00;99999.66;5401518;26;20423;-63
2024/05/06 01:15:10;;;;;;;;;;;;;;;13.90;100.00;100001.44;5389946;26;19930;-62
2024/05/06 01:17:35;;;;;;;;;;;;;;;13.88;100.00;100005.88;5380626;26;20046;-61
2024/05/06 01:20:00;;;;;;;;;;;;;;;13.87;100.00;100005.88;5410573;26;19937;-61
2024/05/06 01:22:29;;;;;;;;;;;;;;;13.85;100.00;100000.53;5400012;26;19990;-61
2024/05/06 01:24:54;;;;;;;;;;;;;;;13.80;100.00;99997.03;5409876;26;19936;-62
2024/05/06 01:27:19;;;;;;;;;;;;;;;13.79;100.00;100010.28;5410422;26;20420;-64
2024/05/06 01:29:45;;;;;;;;;;;;;;;13.84;100.00;100008.53;5410505;26;20462;-62
2024/05/06 01:32:10;;;;;;;;;;;;;;;13.81;100.00;100012.06;5399653;26;19935;-61
2024/05/06 01:34:35;;;;;;;;;;;;;;;13.82;100.00;100019.16;5388100;26;19964;-61
2024/05/06 01:37:01;;;;;;;;;;;;;;;13.84;100.00;100014.75;5397128;26;19960;-63
2024/05/06 01:39:26;;;;;;;;;;;;;;;13.82;100.00;100011.19;5376198;26;19935;-62
2024/05/06 01:41:51;;;;;;;;;;;;;;;13.78;100.00;100020.03;5406477;26;20390;-63
2024/05/06 01:44:16;;;;;;;;;;;;;;;13.84;100.00;100017.41;5405355;26;19979;-65
2024/05/06 01:46:41;;;;;;;;;;;;;;;13.79;100.00;100000.56;5400524;26;19979;-64
2024/05/06 01:49:07;;;;;;;;;;;;;;;13.80;100.00;100002.34;5375595;26;20435;-62
2024/05/06 01:51:32;;;;;;;;;;;;;;;13.75;100.00;100014.69;5386627;26;19933;-62
2024/05/06 01:53:57;;;;;;;;;;;;;;;13.77;100.00;100004.97;5407438;26;19970;-65
2024/05/06 01:56:22;;;;;;;;;;;;;;;13.79;100.00;100010.28;5396859;26;20331;-60
2024/05/06 01:58:48;;;;;;;;;;;;;;;13.80;100.00;100007.63;5407057;26;19979;-62
2024/05/06 02:01:13;;;;;;;;;;;;;;;13.78;100.00;100009.41;5399163;26;20261;-61
2024/05/06 02:03:41;;;;;;;;;;;;;;;13.77;100.00;100001.44;5401694;26;19943;-63
2024/05/06 02:06:06;;;;;;;;;;;;;;;13.74;100.00;100007.63;5390008;26;19974;-62
2024/05/06 02:08:31;;;;;;;;;;;;;;;13.70;100.00;100011.13;5403218;26;19959;-61
2024/05/06 02:10:57;;;;;;;;;;;;;;;13.71;100.00;100009.38;5382996;26;19963;-64
2024/05/06 02:13:22;;;;;;;;;;;;;;;13.70;100.00;100011.13;5388540;26;19945;-64
2024/05/06 02:15:48;;;;;;;;;;;;;;;13.64;100.00;100008.50;5398178;26;19963;-64
2024/05/06 02:18:13;;;;;;;;;;;;;;;13.67;100.00;100004.97;5409304;26;20460;-64
2024/05/06 02:20:38;;;;;;;;;;;;;;;13.65;100.00;100006.72;5404768;26;19929;-64
2024/05/06 02:23:03;;;;;;;;;;;;;;;13.66;100.00;100008.50;5401346;26;20069;-65
2024/05/06 02:25:28;;;;;;;;;;;;;;;13.66;100.00;100014.69;5409776;26;20296;-61
2024/05/06 02:27:53;;;;;;;;;;;;;;;13.64;100.00;100002.28;5402520;26;19929;-61
2024/05/06 02:30:19;;;;;;;;;;;;;;;13.62;100.00;100007.59;5404113;26;19937;-61
2024/05/06 02:32:44;;;;;;;;;;;;;;;13.61;100.00;100011.13;5395644;26;19938;-61
2024/05/06 02:35:09;;;;;;;;;;;;;;;13.64;100.00;100016.44;5400736;26;19966;-61
2024/05/06 02:37:34;;;;;;;;;;;;;;;13.60;100.00;100014.66;5400160;26;19957;-63
2024/05/06 02:39:59;;;;;;;;;;;;;;;13.62;100.00;100007.59;5395358;26;19929;-66
2024/05/06 02:42:25;;;;;;;;;;;;;;;13.65;100.00;100018.22;5410888;26;20776;-62
2024/05/06 02:44:50;;;;;;;;;;;;;;;13.65;100.00;100012.91;5406106;26;19963;-61
2024/05/06 02:47:15;;;;;;;;;;;;;;;13.68;100.00;100023.53;5397079;26;20377;-61
2024/05/06 02:49:42;;;;;;;;;;;;;;;13.69;100.00;100025.28;5397541;26;19929;-62
2024/05/06 02:52:07;;;;;;;;;;;;;;;13.76;100.00;100027.09;5386344;26;19937;-62
2024/05/06 02:54:32;;;;;;;;;;;;;;;13.74;100.00;100023.56;5409587;26;19988;-66
2024/05/06 02:56:57;;;;;;;;;;;;;;;13.71;100.00;100022.66;5410374;26;19986;-63
2024/05/06 02:59:22;;;;;;;;;;;;;;;13.81;100.00;100030.66;5409941;26;20273;-63
2024/05/06 03:01:48;;;;;;;;;;;;;;;13.84;100.00;100035.09;5397264;26;19969;-61
2024/05/06 03:04:13;;;;;;;;;;;;;;;13.88;100.00;100035.09;5400825;26;19929;-62
2024/05/06 03:06:41;;;;;;;;;;;;;;;13.86;100.00;100028.88;5381512;26;19961;-62
2024/05/06 03:09:06;;;;;;;;;;;;;;;13.67;100.00;99995.22;5405596;26;19932;-62
2024/05/06 03:11:36;;;;;;;;;;;;;;;13.96;100.00;100036.91;5399742;26;20003;-62
2024/05/06 03:14:01;;;;;;;;;;;;;;;13.99;100.00;100034.25;5389538;26;19961;-63
2024/05/06 03:16:26;;;;;;;;;;;;;;;13.98;100.00;100036.03;5381671;26;20075;-63
2024/05/06 03:18:52;;;;;;;;;;;;;;;13.94;100.00;100043.09;5390650;26;19957;-62
2024/05/06 03:21:17;;;;;;;;;;;;;;;13.97;100.00;100043.97;5387723;26;20739;-62
2024/05/06 03:23:42;;;;;;;;;;;;;;;14.06;100.00;100049.28;5408343;26;19941;-64
2024/05/06 03:26:07;;;;;;;;;;;;;;;14.05;100.00;100050.19;5395192;26;20776;-61
2024/05/06 03:28:32;;;;;;;;;;;;;;;14.02;100.00;100050.19;5406958;26;20838;-63
2024/05/06 03:30:58;;;;;;;;;;;;;;;13.88;100.00;100053.69;5392873;26;19948;-62
2024/05/06 03:33:23;;;;;;;;;;;;;;;13.63;100.00;100065.13;5404819;26;19970;-61
2024/05/06 03:35:48;;;;;;;;;;;;;;;13.57;100.00;100075.72;5408008;26;20002;-61
2024/05/06 03:38:13;;;;;;;;;;;;;;;13.62;100.00;100073.97;5374961;26;20667;-61
2024/05/06 03:40:39;;;;;;;;;;;;;;;13.41;100.00;100036.72;5419840;26;20347;-61
2024/05/06 03:43:04;;;;;;;;;;;;;;;13.47;100.00;100069.50;5407595;26;20003;-63
2024/05/06 03:45:29;;;;;;;;;;;;;;;13.43;100.00;100058.84;5411780;26;19936;-61
2024/05/06 03:47:54;;;;;;;;;;;;;;;13.19;100.00;100071.09;5381123;26;20049;-60
2024/05/06 03:50:20;;;;;;;;;;;;;;;12.91;100.00;100071.78;5400354;26;20331;-62
2024/05/06 03:52:45;;;;;;;;;;;;;;;12.89;100.00;100077.06;5393873;26;19929;-61
2024/05/06 03:55:10;;;;;;;;;;;;;;;12.75;100.00;100068.13;5377046;26;20358;-61
2024/05/06 03:57:45;;;;;;;;;;;;;;;12.92;100.00;100065.59;5399740;26;19971;-63
2024/05/06 04:00:11;;;;;;;;;;;;;;;12.90;100.00;100059.41;5383222;26;19957;-60
2024/05/06 04:02:36;;;;;;;;;;;;;;;12.92;100.00;100067.38;5400302;26;20087;-61
2024/05/06 04:05:01;;;;;;;;;;;;;;;12.82;100.00;100064.63;5414059;26;20046;-61
2024/05/06 04:07:27;;;;;;;;;;;;;;;12.92;100.00;100075.31;5418321;26;20433;-61
2024/05/06 04:09:52;;;;;;;;;;;;;;;12.86;100.00;100065.53;5426352;26;20581;-60
2024/05/06 04:12:17;;;;;;;;;;;;;;;12.65;100.00;100065.38;5408696;26;20265;-62
2024/05/06 04:14:42;;;;;;;;;;;;;;;12.67;100.00;100064.50;5418368;26;20414;-67
2024/05/06 04:17:07;;;;;;;;;;;;;;;12.72;100.00;100067.22;5374150;26;19967;-62
2024/05/06 04:19:33;;;;;;;;;;;;;;;12.70;100.00;100063.66;5383786;26;19966;-61
2024/05/06 04:21:58;;;;;;;;;;;;;;;12.60;100.00;100077.72;5380703;26;19970;-62
2024/05/06 04:27:12;;;;;;;;;;;;;;;12.46;100.00;100078.50;5373753;26;20053;-62
2024/05/06 04:29:37;;;;;;;;;;;;;;;12.39;100.00;100076.66;5374037;26;19963;-61
2024/05/06 04:32:03;;;;;;;;;;;;;;;12.44;100.00;100082.91;5377606;26;19936;-63
2024/05/06 04:34:28;;;;;;;;;;;;;;;12.44;100.00;100072.31;5376333;26;19957;-62
2024/05/06 04:36:54;;;;;;;;;;;;;;;12.43;100.00;100086.44;5377652;26;19940;-63
2024/05/06 04:39:20;;;;;;;;;;;;;;;12.36;100.00;100095.19;5393374;26;19974;-62
2024/05/06 04:41:45;;;;;;;;;;;;;;;12.24;100.00;100089.78;5383801;26;20376;-62
2024/05/06 04:44:10;;;;;;;;;;;;;;;12.27;100.00;100095.09;5373957;26;19930;-61
2024/05/06 04:46:35;;;;;;;;;;;;;;;12.19;100.00;100094.13;5383100;26;19970;-63
2024/05/06 04:49:00;;;;;;;;;;;;;;;12.27;100.00;100097.75;5400022;26;19929;-61
2024/05/06 04:51:25;;;;;;;;;;;;;;;12.23;100.00;100100.34;5388030;26;20296;-60
2024/05/06 04:53:51;;;;;;;;;;;;;;;12.30;100.00;100094.22;5375896;26;20035;-62
2024/05/06 04:56:16;;;;;;;;;;;;;;;12.34;100.00;100093.38;5373826;26;19962;-62
2024/05/06 04:58:41;;;;;;;;;;;;;;;12.29;100.00;100093.38;5389479;26;19937;-62
2024/05/06 05:01:06;;;;;;;;;;;;;;;12.27;100.00;100089.81;5384795;26;20012;-62
2024/05/06 05:03:32;;;;;;;;;;;;;;;12.21;100.00;100084.44;5376198;26;19930;-61
2024/05/06 05:05:57;;;;;;;;;;;;;;;12.25;100.00;100099.50;5392141;26;21498;-61
2024/05/06 05:08:22;;;;;;;;;;;;;;;12.20;100.00;100101.22;5386198;26;20394;-61
2024/05/06 05:10:47;;;;;;;;;;;;;;;12.07;100.00;100117.84;5393321;26;20346;-62
2024/05/06 05:13:12;;;;;;;;;;;;;;;12.08;100.00;100111.69;5410900;26;20634;-63
2024/05/06 05:15:37;;;;;;;;;;;;;;;12.19;100.00;100117.97;5405774;26;19961;-62
2024/05/06 05:18:03;;;;;;;;;;;;;;;12.03;100.00;100123.97;5391411;26;20371;-62
2024/05/06 05:20:28;;;;;;;;;;;;;;;12.06;100.00;100118.72;5382952;26;19936;-63
2024/05/06 05:22:53;;;;;;;;;;;;;;;12.05;100.00;100124.88;5379102;26;19982;-63
2024/05/06 05:25:18;;;;;;;;;;;;;;;11.94;100.00;100121.25;5375234;26;19929;-63
2024/05/06 05:27:43;;;;;;;;;;;;;;;11.97;100.00;100137.13;5393579;26;19964;-63
2024/05/06 05:30:09;;;;;;;;;;;;;;;11.96;100.00;100135.34;5409849;26;20393;-63
2024/05/06 05:32:34;;;;;;;;;;;;;;;11.95;100.00;100138.91;5393692;26;19929;-65
2024/05/06 05:34:59;;;;;;;;;;;;;;;12.06;100.00;100143.44;5387374;26;19937;-62
2024/05/06 05:37:24;;;;;;;;;;;;;;;11.85;100.00;100141.44;5403293;26;20802;-64
2024/05/06 05:39:50;;;;;;;;;;;;;;;11.85;100.00;100144.06;5415877;26;19959;-63
2024/05/06 05:42:16;;;;;;;;;;;;;;;11.55;100.00;100159.53;5406662;26;20437;-63
2024/05/06 05:44:41;;;;;;;;;;;;;;;11.37;100.00;100169.84;5406493;26;20018;-63
2024/05/06 05:47:07;;;;;;;;;;;;;;;11.30;100.00;100171.50;5396317;26;20002;-63
2024/05/06 05:49:32;;;;;;;;;;;;;;;11.10;100.00;100189.72;5417069;26;19986;-63
2024/05/06 05:51:57;;;;;;;;;;;;;;;11.37;100.00;100191.03;5415399;26;20000;-62
2024/05/06 05:54:22;;;;;;;;;;;;;;;11.09;100.00;100189.69;5408382;26;19967;-62
2024/05/06 05:56:48;;;;;;;;;;;;;;;11.07;100.00;100202.03;5413084;26;20878;-65
2024/05/06 05:59:13;;;;;;;;;;;;;;;11.11;100.00;100204.72;5413472;26;19972;-63
2024/05/06 06:01:45;;;;;;;;;;;;;;;11.13;100.00;100197.69;5408493;26;20350;-61
2024/05/06 06:04:10;;;;;;;;;;;;;;;10.97;100.00;100200.97;5413279;26;20007;-63
2024/05/06 06:06:35;;;;;;;;;;;;;;;11.08;100.00;100209.94;5406070;26;20260;-65
2024/05/06 06:09:00;;;;;;;;;;;;;;;10.92;100.00;100197.34;5408894;26;20025;-62
2024/05/06 06:11:26;;;;;;;;;;;;;;;11.16;100.00;100207.44;5417854;26;19989;-62
2024/05/06 06:13:51;;;;;;;;;;;;;;;11.09;100.00;100205.56;5419961;26;20663;-61
2024/05/06 06:16:17;;;;;;;;;;;;;;;11.03;100.00;100209.00;5432616;26;19964;-63
2024/05/06 06:18:42;;;;;;;;;;;;;;;10.81;100.00;100204.22;5423122;26;20016;-65
2024/05/06 06:21:07;;;;;;;;;;;;;;;11.10;100.00;100209.97;5423882;26;20032;-62
2024/05/06 06:23:32;;;;;;;;;;;;;;;10.99;100.00;100220.41;5418192;26;19990;-62
2024/05/06 06:25:59;;;;;;;;;;;;;;;10.75;100.00;100217.31;5417693;26;20034;-60
2024/05/06 06:28:24;;;;;;;;;;;;;;;10.99;100.00;100215.09;5420899;26;19973;-63
2024/05/06 06:30:49;;;;;;;;;;;;;;;11.11;100.00;100220.59;5414884;26;20441;-63
2024/05/06 06:33:14;;;;;;;;;;;;;;;11.07;100.00;100213.50;5415981;26;19972;-61
2024/05/06 06:35:39;;;;;;;;;;;;;;;11.10;100.00;100218.81;5417437;26;20000;-62
2024/05/06 06:38:06;;;;;;;;;;;;;;;10.88;100.00;100221.09;5423264;26;20506;-63
2024/05/06 06:40:31;;;;;;;;;;;;;;;10.94;100.00;100232.63;5417590;26;20355;-62
2024/05/06 06:42:57;;;;;;;;;;;;;;;10.98;100.00;100229.19;5427984;26;19996;-63
2024/05/06 06:45:22;;;;;;;;;;;;;;;10.80;100.00;100235.03;5421869;26;20043;-63
2024/05/06 06:47:47;;;;;;;;;;;;;;;10.88;100.00;100229.91;5425433;26;20480;-62
2024/05/06 06:50:12;;;;;;;;;;;;;;;11.05;100.00;100236.38;5420574;26;19992;-62
2024/05/06 06:52:38;;;;;;;;;;;;;;;11.08;100.00;100225.81;5418367;26;19993;-64
2024/05/06 06:55:04;;;;;;;;;;;;;;;11.33;100.00;100232.41;5409700;26;20053;-61
2024/05/06 06:57:29;;;;;;;;;;;;;;;11.36;100.00;100226.28;5409593;26;19972;-61
2024/05/06 06:59:54;;;;;;;;;;;;;;;11.36;100.00;100221.00;5418967;26;20479;-62
2024/05/06 07:02:19;;;;;;;;;;;;;;;11.34;100.00;100222.72;5411222;26;19937;-61
2024/05/06 07:04:45;;;;;;;;;;;;;;;11.46;100.00;100217.59;5413432;26;20395;-62
2024/05/06 07:07:10;;;;;;;;;;;;;;;11.40;100.00;100213.13;5412223;26;19930;-65
2024/05/06 07:09:35;;;;;;;;;;;;;;;11.44;100.00;100208.75;5416533;26;19963;-63
2024/05/06 07:12:01;;;;;;;;;;;;;;;11.53;100.00;100211.56;5406821;26;20443;-62
2024/05/06 07:14:26;;;;;;;;;;;;;;;11.49;100.00;100215.00;5406365;26;19929;-64
2024/05/06 07:16:51;;;;;;;;;;;;;;;11.34;100.00;100212.13;5420672;26;19934;-63
2024/05/06 07:19:16;;;;;;;;;;;;;;;11.41;100.00;100219.31;5415096;26;19929;-59
2024/05/06 07:21:43;;;;;;;;;;;;;;;11.51;100.00;100215.94;5408083;26;20031;-61
2024/05/06 07:24:09;;;;;;;;;;;;;;;11.60;100.00;100210.75;5414838;26;19963;-61
2024/05/06 07:26:34;;;;;;;;;;;;;;;11.58;100.00;100217.81;5401296;26;20737;-60
2024/05/06 07:28:59;;;;;;;;;;;;;;;11.58;100.00;100233.69;5417072;26;19965;-63
2024/05/06 07:31:24;;;;;;;;;;;;;;;11.63;100.00;100229.34;5392612;26;19937;-62
2024/05/06 07:33:49;;;;;;;;;;;;;;;11.47;100.00;100229.97;5417755;26;19959;-61
2024/05/06 07:36:15;;;;;;;;;;;;;;;11.16;100.00;100203.03;5413033;26;19944;-60
2024/05/06 07:38:40;;;;;;;;;;;;;;;11.61;100.00;100233.72;5410357;26;19936;-60
2024/05/06 07:41:05;;;;;;;;;;;;;;;11.80;100.00;100226.97;5405671;26;20015;-61
2024/05/06 07:43:30;;;;;;;;;;;;;;;11.89;100.00;100231.50;5403439;26;19930;-62
2024/05/06 07:45:57;;;;;;;;;;;;;;;11.64;100.00;100239.06;5413195;26;19943;-61
2024/05/06 07:48:23;;;;;;;;;;;;;;;11.49;100.00;100233.53;5399842;26;19986;-63
2024/05/06 07:50:48;;;;;;;;;;;;;;;11.44;100.00;100251.97;5405809;26;19940;-65
2024/05/06 07:53:13;;;;;;;;;;;;;;;11.34;100.00;100254.47;5420765;26;19993;-65
2024/05/06 07:55:39;;;;;;;;;;;;;;;11.22;100.00;100252.53;5395803;26;19930;-60
2024/05/06 07:58:04;;;;;;;;;;;;;;;11.41;100.00;100256.38;5408464;26;20076;-63
2024/05/06 08:00:35;;;;;;;;;;;;;;;11.44;100.00;100256.38;5390168;26;19933;-62
2024/05/06 08:03:00;;;;;;;;;;;;;;;11.37;100.00;100257.16;5401094;26;19937;-64
2024/05/06 08:05:26;;;;;;;;;;;;;;;11.29;100.00;100250.84;5399393;26;20762;-63
2024/05/06 08:07:52;;;;;;;;;;;;;;;11.05;100.00;100252.25;5397492;26;19971;-62
2024/05/06 08:10:17;;;;;;;;;;;;;;;11.06;100.00;100256.66;5400084;26;19944;-60
2024/05/06 08:12:42;;;;;;;;;;;;;;;11.45;100.00;100259.06;5407354;26;19937;-63
2024/05/06 08:15:08;;;;;;;;;;;;;;;11.48;100.00;100263.50;5411186;26;19929;-61
2024/05/06 08:17:33;;;;;;;;;;;;;;;11.60;100.00;100261.03;5397171;26;19999;-62
2024/05/06 08:19:58;;;;;;;;;;;;;;;11.67;100.00;100249.69;5417628;26;19929;-63
2024/05/06 08:22:23;;;;;;;;;;;;;;;11.84;100.00;100253.50;5397749;26;19999;-61
2024/05/06 08:24:48;;;;;;;;;;;;;;;11.96;100.00;100251.88;5408137;26;19938;-62
2024/05/06 08:27:13;;;;;;;;;;;;;;;11.72;100.00;100253.31;5409809;26;20331;-64
2024/05/06 08:29:39;;;;;;;;;;;;;;;11.74;100.00;100267.47;5399061;26;19930;-65
2024/05/06 08:32:04;;;;;;;;;;;;;;;11.32;100.00;100262.38;5402157;26;19948;-67
2024/05/06 08:34:29;;;;;;;;;;;;;;;11.67;100.00;100265.56;5410351;26;19928;-61
2024/05/06 08:36:55;;;;;;;;;;;;;;;11.98;100.00;100258.97;5404040;26;19929;-62
2024/05/06 08:39:20;;;;;;;;;;;;;;;12.20;100.00;100268.13;5404326;26;19940;-62
2024/05/06 08:41:46;;;;;;;;;;;;;;;12.07;100.00;100245.00;5413602;26;19944;-62
2024/05/06 08:44:11;;;;;;;;;;;;;;;12.26;100.00;100246.13;5432113;26;19932;-61
2024/05/06 08:46:37;;;;;;;;;;;;;;;12.02;100.00;100236.97;5414440;26;20373;-61
2024/05/06 08:49:04;;;;;;;;;;;;;;;12.11;100.00;100246.81;5418797;26;19936;-61
2024/05/06 08:51:30;;;;;;;;;;;;;;;12.10;100.00;100245.03;5396236;26;19972;-61
2024/05/06 08:53:55;;;;;;;;;;;;;;;12.05;100.00;100244.09;5409273;26;20369;-64
2024/05/06 08:56:22;;;;;;;;;;;;;;;12.02;100.00;100246.69;5413940;26;19934;-60
2024/05/06 08:58:49;;;;;;;;;;;;;;;12.39;100.00;100240.97;5412091;26;19936;-65
2024/05/06 09:01:15;;;;;;;;;;;;;;;12.32;100.00;100241.75;5410926;26;20029;-64
2024/05/06 09:03:40;;;;;;;;;;;;;;;12.36;100.00;100248.00;5400509;26;19929;-63
2024/05/06 09:06:05;;;;;;;;;;;;;;;12.41;100.00;100252.50;5403838;26;20045;-64
2024/05/06 09:08:31;;;;;;;;;;;;;;;12.62;100.00;100251.84;5405761;26;19966;-63
2024/05/06 09:10:56;;;;;;;;;;;;;;;12.45;100.00;100238.41;5404774;26;20010;-63
2024/05/06 09:13:21;;;;;;;;;;;;;;;12.74;100.00;100246.66;5399522;26;20362;-63
2024/05/06 09:15:46;;;;;;;;;;;;;;;13.07;100.00;100234.59;5410488;26;19948;-64
2024/05/06 09:18:12;;;;;;;;;;;;;;;13.11;100.00;100237.31;5417826;26;19949;-64
2024/05/06 09:20:38;;;;;;;;;;;;;;;13.14;100.00;100226.72;5397514;26;19929;-63
2024/05/06 09:23:12;;;;;;;;;;;;;;;13.14;100.00;100232.03;5412785;26;19928;-67
2024/05/06 09:25:37;;;;;;;;;;;;;;;13.48;100.00;100229.66;5412191;26;20226;-63
2024/05/06 09:28:02;;;;;;;;;;;;;;;13.32;100.00;100231.31;5425098;26;19966;-64
2024/05/06 09:30:28;;;;;;;;;;;;;;;13.19;100.00;100238.28;5410756;26;19936;-62
2024/05/06 09:32:54;;;;;;;;;;;;;;;13.46;100.00;100234.06;5421036;26;19999;-63
2024/05/06 09:35:21;;;;;;;;;;;;;;;13.30;100.00;100249.00;5409863;26;19978;-62
2024/05/06 09:37:47;;;;;;;;;;;;;;;13.04;100.00;100246.06;5391579;26;20587;-62
2024/05/06 09:40:15;;;;;;;;;;;;;;;13.12;100.00;100249.69;5423220;26;20005;-63
2024/05/06 09:42:43;;;;;;;;;;;;;;;13.27;100.00;100254.28;5401690;26;20019;-63
2024/05/06 09:45:09;;;;;;;;;;;;;;;13.21;100.00;100257.75;5399511;26;19986;-62
2024/05/06 09:47:34;;;;;;;;;;;;;;;12.93;100.00;100253.03;5413708;26;20841;-63
2024/05/06 09:50:03;;;;;;;;;;;;;;;13.35;100.00;100254.31;5410959;26;19937;-62
2024/05/06 09:52:29;;;;;;;;;;;;;;;12.95;100.00;100256.59;5402362;26;20354;-61
2024/05/06 09:54:55;;;;;;;;;;;;;;;12.95;100.00;100261.91;5412807;26;19940;-62
2024/05/06 09:57:20;;;;;;;;;;;;;;;13.18;100.00;100260.38;5396913;26;20352;-63
2024/05/06 09:59:46;;;;;;;;;;;;;;;13.68;100.00;100261.69;5410680;26;19945;-62
2024/05/06 10:02:19;;;;;;;;;;;;;;;13.07;100.00;100256.72;5410224;26;20539;-61
2024/05/06 10:04:45;;;;;;;;;;;;;;;13.22;100.00;100251.56;5407921;26;19968;-61
2024/05/06 10:07:12;;;;;;;;;;;;;;;13.59;100.00;100251.84;5394706;26;19929;-61
2024/05/06 10:09:37;;;;;;;;;;;;;;;14.00;100.00;100251.25;5415694;26;19933;-61
2024/05/06 10:12:04;;;;;;;;;;;;;;;14.30;100.00;100248.72;5408333;26;19963;-63
2024/05/06 10:14:30;;;;;;;;;;;;;;;14.67;100.00;100243.56;5421216;26;19982;-63
2024/05/06 10:17:03;;;;;;;;;;;;;;;14.54;100.00;100243.53;5421558;26;19928;-62
2024/05/06 10:19:28;;;;;;;;;;;;;;;14.43;100.00;100245.25;5407911;26;19929;-62
2024/05/06 10:21:54;;;;;;;;;;;;;;;14.04;100.00;100247.69;5417674;26;19957;-62
2024/05/06 10:24:22;;;;;;;;;;;;;;;13.69;100.00;100253.69;5428677;26;19980;-62
2024/05/06 10:26:52;;;;;;;;;;;;;;;13.90;100.00;100259.13;5408928;26;19989;-64
2024/05/06 10:29:17;;;;;;;;;;;;;;;13.77;100.00;100251.97;5423660;26;19936;-62
2024/05/06 10:31:43;;;;;;;;;;;;;;;14.07;100.00;100250.38;5407508;26;20446;-64
2024/05/06 10:34:09;;;;;;;;;;;;;;;13.81;100.00;100259.09;5398942;26;20429;-62
2024/05/06 10:36:34;;;;;;;;;;;;;;;13.80;100.00;100259.97;5413363;26;19930;-62
2024/05/06 10:38:59;;;;;;;;;;;;;;;13.87;100.00;100263.53;5404817;26;19996;-62
2024/05/06 10:41:24;;;;;;;;;;;;;;;13.87;100.00;100275.06;5415534;26;20023;-63
2024/05/06 10:43:50;;;;;;;;;;;;;;;13.71;100.00;100281.16;5410701;26;19966;-62
2024/05/06 10:46:15;;;;;;;;;;;;;;;13.92;100.00;100278.63;5406747;26;19936;-62
2024/05/06 10:48:40;;;;;;;;;;;;;;;13.92;100.00;100291.91;5415325;26;20503;-59
2024/05/06 10:51:06;;;;;;;;;;;;;;;14.13;100.00;100295.59;5399091;26;19929;-67
2024/05/06 10:53:31;;;;;;;;;;;;;;;13.84;100.00;100288.34;5400971;26;19936;-64
2024/05/06 10:55:56;;;;;;;;;;;;;;;13.84;100.00;100288.34;5406539;26;19937;-64
2024/05/06 10:58:23;;;;;;;;;;;;;;;13.87;100.00;100293.66;5414342;26;19929;-66
2024/05/06 11:00:48;;;;;;;;;;;;;;;14.05;100.00;100298.19;5411363;26;19944;-62
2024/05/06 11:03:14;;;;;;;;;;;;;;;14.05;100.00;100305.28;5414899;26;19936;-65
2024/05/06 11:05:39;;;;;;;;;;;;;;;13.60;100.00;100312.06;5421141;26;20421;-62
2024/05/06 11:08:06;;;;;;;;;;;;;;;13.75;100.00;100322.78;5416311;26;19952;-61
2024/05/06 11:10:37;;;;;;;;;;;;;;;13.82;100.00;100319.31;5419730;26;19980;-61
2024/05/06 11:13:02;;;;;;;;;;;;;;;13.52;100.00;100324.38;5400169;26;19967;-64
2024/05/06 11:15:27;;;;;;;;;;;;;;;13.62;100.00;100328.91;5412563;26;19929;-61
2024/05/06 11:17:53;;;;;;;;;;;;;;;14.09;100.00;100337.19;5424342;26;20434;-67
2024/05/06 11:20:37;;;;;;;;;;;;;;;14.12;100.00;100326.59;5419520;26;19929;-65
2024/05/06 11:23:06;;;;;;;;;;;;;;;14.57;100.00;100325.97;5423643;26;19936;-65
2024/05/06 11:25:32;;;;;;;;;;;;;;;14.47;100.00;100320.59;5419790;26;19933;-61
2024/05/06 11:27:58;;;;;;;;;;;;;;;14.59;100.00;100321.53;5426791;26;20000;-61
2024/05/06 11:30:23;;;;;;;;;;;;;;;14.24;100.00;100325.75;5423725;26;20300;-62
2024/05/06 11:32:48;;;;;;;;;;;;;;;14.76;100.00;100329.59;5420135;26;19940;-62
2024/05/06 11:35:13;;;;;;;;;;;;;;;14.35;100.00;100326.72;5419795;26;20499;-62
2024/05/06 11:37:39;;;;;;;;;;;;;;;14.01;100.00;100330.97;5422627;26;20760;-62
2024/05/06 11:40:04;;;;;;;;;;;;;;;13.96;100.00;100337.13;5420966;26;20125;-63
2024/05/06 11:42:30;;;;;;;;;;;;;;;13.84;100.00;100344.13;5417847;26;20030;-66
2024/05/06 11:44:55;;;;;;;;;;;;;;;13.75;100.00;100353.78;5416879;26;20355;-62
2024/05/06 11:47:20;;;;;;;;;;;;;;;13.75;100.00;100365.28;5405120;26;19930;-63
2024/05/06 11:49:46;;;;;;;;;;;;;;;13.78;100.00;100349.38;5414019;26;19937;-65
2024/05/06 11:52:11;;;;;;;;;;;;;;;13.48;100.00;100362.41;5418893;26;19937;-65
2024/05/06 11:54:36;;;;;;;;;;;;;;;13.74;100.00;100363.50;5404538;26;19960;-62
2024/05/06 11:57:02;;;;;;;;;;;;;;;14.17;100.00;100363.84;5409214;26;19944;-62
2024/05/06 11:59:27;;;;;;;;;;;;;;;14.05;100.00;100363.72;5413542;26;20010;-64
2024/05/06 12:01:53;;;;;;;;;;;;;;;14.11;100.00;100366.44;5418510;26;20365;-64
2024/05/06 12:04:18;;;;;;;;;;;;;;;13.88;100.00;100367.16;5409065;26;19940;-63
2024/05/06 12:06:43;;;;;;;;;;;;;;;13.94;100.00;100368.97;5405184;26;19929;-67
2024/05/06 12:09:08;;;;;;;;;;;;;;;13.91;100.00;100372.50;5414369;26;19943;-64
2024/05/06 12:11:33;;;;;;;;;;;;;;;13.64;100.00;100366.97;5396143;26;19963;-62
2024/05/06 12:13:59;;;;;;;;;;;;;;;13.62;100.00;100363.41;5416829;26;19928;-64
2024/05/06 12:16:24;;;;;;;;;;;;;;;14.06;100.00;100370.84;5406485;26;20417;-64
2024/05/06 12:18:49;;;;;;;;;;;;;;;13.97;100.00;100381.41;5414673;26;20078;-64
2024/05/06 12:21:15;;;;;;;;;;;;;;;14.01;100.00;100369.94;5407319;26;19936;-65